Flight Track Log - Related Links

Times and Time Zones

All times are in EDT time to prevent confusion due to time zone crossing. See the EGF4247 flight status page for this flight to view local times or setup timezone preferences in your user account.

Time Position Orientation Groundspeed Altitude Reporting Facility
EDT Latitude Longitude Course Direction KTS MPH feet Rate Location/Type
Sat 04:19:39 PM 42.9333 -78.7500 277° West 159 183 1,500  Level Buffalo TRACON
Sat 04:20:33 PM 42.9167 -78.8000 246° West 193 222 3,700 2,789 Climbing Buffalo TRACON
Sat 04:21:33 PM 42.9167 -78.8667 270° West 198 228 6,800 2,526 Climbing Buffalo TRACON
Sat 04:22:00 PM 42.9500 -79.0406 270° West  Level FlightAware Approximate
Sat 04:22:27 PM 42.9333 -78.9500 285° West 225 259 8,500  Level Buffalo TRACON
Sat 04:22:50 PM 42.9333 -78.9500 285° West 220 253 9,300 1,735 Climbing Toronto Center
Sat 04:23:00 PM 42.9569 -79.1490 277° West  Level FlightAware Approximate
Sat 04:23:50 PM 42.9500 -79.0333 285° West 240 276 10,900  Level Toronto Center
Sat 04:24:00 PM 42.9659 -79.2572 277° West  Level FlightAware Approximate
Sat 04:24:50 PM 42.9500 -79.1500 270° West 290 334 11,000  Level Toronto Center
Sat 04:25:50 PM 42.9500 -79.2833 270° West 320 368 12,100 1,400 Climbing Toronto Center
Sat 04:26:50 PM 42.9667 -79.4000 281° West 320 368 13,800 1,050 Climbing Toronto Center
Sat 04:27:50 PM 42.9667 -79.5500 270° West 330 380 14,200 1,350 Climbing Toronto Center
Sat 04:28:50 PM 42.9667 -79.6500 270° West 320 368 16,500 1,800 Climbing Toronto Center
Sat 04:29:50 PM 42.9833 -79.7667 281° West 310 357 17,800 1,300 Climbing Toronto Center
Sat 04:30:50 PM 42.9833 -79.8833 270° West 320 368 19,100 1,400 Climbing Toronto Center
Sat 04:31:50 PM 42.9833 -80.0000 270° West 320 368 20,600 1,450 Climbing Toronto Center
Sat 04:32:50 PM 43.0000 -80.1333 280° West 320 368 22,000 1,000 Climbing Toronto Center
Sat 04:33:50 PM 43.0000 -80.2500 270° West 320 368 22,600 550 Climbing Toronto Center
Sat 04:34:50 PM 43.0000 -80.3833 270° West 340 391 23,100 550 Climbing Toronto Center
Sat 04:35:50 PM 43.0167 -80.5167 280° West 340 391 23,700 600 Climbing Toronto Center
Sat 04:36:50 PM 43.0167 -80.6333 270° West 350 403 24,300 650 Climbing Toronto Center
Sat 04:37:50 PM 43.0167 -80.7667 270° West 350 403 25,000 650 Climbing Toronto Center
Sat 04:38:50 PM 43.0167 -80.9167 270° West 350 403 25,600 600 Climbing Toronto Center
Sat 04:39:50 PM 43.0167 -81.0500 270° West 350 403 26,200 600 Climbing Toronto Center
Sat 04:40:50 PM 43.0167 -81.1833 270° West 350 403 26,800 600 Climbing Toronto Center
Sat 04:41:50 PM 43.0167 -81.3167 270° West 350 403 27,400 600 Climbing Toronto Center
Sat 04:42:50 PM 43.0167 -81.4500 270° West 350 403 28,000 600 Climbing Toronto Center
Sat 04:43:50 PM 43.0167 -81.6000 270° West 350 403 28,600 600 Climbing Toronto Center
Sat 04:44:50 PM 43.0167 -81.7000 270° West 350 403 29,200 600 Climbing Toronto Center
Sat 04:45:50 PM 43.0167 -81.8500 270° West 360 414 29,800 400 Climbing Toronto Center
Sat 04:46:50 PM 43.0000 -82.0000 261° West 370 426 30,000 100 Climbing Toronto Center
Sat 04:47:50 PM 43.0000 -82.1333 270° West 380 437 30,000  Level Toronto Center
Sat 04:48:50 PM 43.0000 -82.3000 270° West 390 449 30,000  Level Toronto Center
Sat 04:49:50 PM 43.0000 -82.4333 270° West 390 449 30,000 500 Level Toronto Center
Sat 04:50:50 PM 43.0000 -82.6000 270° West 390 449 31,000 923 Climbing Toronto Center
Sat 04:51:21 PM 43.0019 -82.6697 272° West 385 443 31,400 1,121 Climbing Cleveland Center
Sat 04:52:21 PM 42.9994 -82.8058 269° West 380 437 32,700 1,100 Climbing Cleveland Center
Sat 04:53:21 PM 42.9944 -82.9478 267° West 374 430 33,600 650 Climbing Cleveland Center
Sat 04:54:21 PM 42.9894 -83.0836 267° West 369 425 34,000 200 Climbing Cleveland Center
Sat 04:55:21 PM 42.9842 -83.2283 267° West 369 425 34,000  Level Cleveland Center
Sat 04:56:21 PM 42.9789 -83.3728 267° West 375 432 34,000  Level Cleveland Center
Sat 04:57:21 PM 42.9731 -83.5172 267° West 381 438 34,000  Level Cleveland Center
Sat 04:58:21 PM 42.9672 -83.6617 267° West 381 438 34,000  Level Cleveland Center
Sat 04:59:21 PM 42.9592 -83.8061 266° West 386 444 34,000  Level Cleveland Center
Sat 05:00:21 PM 42.9447 -83.9500 262° West 386 444 34,000  Level Cleveland Center
Sat 05:01:21 PM 42.9300 -84.0939 262° West 386 444 34,000  Level Cleveland Center
Sat 05:02:21 PM 42.9172 -84.2350 263° West 386 444 34,000 -635 Level Cleveland Center
Sat 05:04:11 PM 42.8931 -84.4922 263° West 376 433 32,200 -698 Descending Chicago Center
Sat 05:05:13 PM 42.8783 -84.6339 262° West 377 434 32,000 -97 Descending Chicago Center
Sat 05:06:15 PM 42.8644 -84.7764 262° West 379 436 32,000  Level Chicago Center
Sat 05:07:16 PM 42.8483 -84.9194 261° West 383 441 32,000  Level Chicago Center
Sat 05:08:18 PM 42.8333 -85.0619 262° West 381 438 32,000  Level Chicago Center
Sat 05:09:20 PM 42.8181 -85.2078 262° West 387 445 32,000  Level Chicago Center
Sat 05:10:21 PM 42.8025 -85.3522 262° West 387 445 32,000  Level Chicago Center
Sat 05:11:23 PM 42.7861 -85.4983 261° West 390 449 32,000  Level Chicago Center
Sat 05:12:24 PM 42.7569 -85.6689 257° West 383 441 32,000 -976 Level Chicago Center
Sat 05:13:26 PM 42.7308 -85.8089 256° West 381 438 30,000 -2,516 Descending Chicago Center
Sat 05:14:28 PM 42.7067 -85.9417 256° West 364 419 26,800 -3,463 Descending Chicago Center
Sat 05:15:29 PM 42.6822 -86.0761 256° West 363 418 22,900 -3,073 Descending Chicago Center
Sat 05:16:31 PM 42.6572 -86.2081 256° West 361 415 20,500 -1,902 Descending Chicago Center
Sat 05:17:32 PM 42.6331 -86.3381 256° West 355 409 19,000 -1,512 Descending Chicago Center
Sat 05:18:34 PM 42.6078 -86.4697 255° West 359 413 17,400 -1,790 Descending Chicago Center
Sat 05:19:36 PM 42.5833 -86.6011 256° West 358 412 15,300 -1,984 Descending Chicago Center
Sat 05:20:38 PM 42.5589 -86.7308 256° West 357 411 13,300 -1,902 Descending Chicago Center
Sat 05:21:39 PM 42.5172 -86.8836 250° West 359 413 11,400 -1,366 Descending Chicago Center
Sat 05:22:41 PM 42.4850 -87.0050 250° West 349 402 10,500 -683 Descending Chicago Center
Sat 05:23:42 PM 42.4514 -87.1214 249° West 337 388 10,000 -390 Descending Chicago Center
Sat 05:24:44 PM 42.4197 -87.2239 247° West 299 344 9,700 -488 Descending Chicago Center
Sat 05:25:45 PM 42.3433 -87.2539 196° South 293 337 9,000 -537 Descending Chicago Center
Sat 05:26:47 PM 42.2667 -87.2733 191° South 289 333 8,600 -726 Descending Chicago Center
Sat 05:27:49 PM 42.1761 -87.3008 193° South 280 322 7,500 -780 Descending Chicago Center
Sat 05:28:50 PM 42.1053 -87.3189 191° South 264 304 7,000 -244 Descending Chicago Center
Sat 05:29:52 PM 42.0325 -87.3386 191° South 267 307 7,000 -98 Level Chicago Center
Sat 05:30:53 PM 41.9856 -87.3931 221° Southwest 239 275 6,800 -414 Descending Chicago Center
Sat 05:31:19 PM 41.9833 -87.4333 266° West 229 264 6,400 -767 Descending Chicago TRACON
Sat 05:32:19 PM 41.9833 -87.5167 270° West 240 276 5,700 -632 Descending Chicago TRACON
Sat 05:33:13 PM 41.9833 -87.6000 270° West 207 238 5,200 -556 Descending Chicago TRACON

Login

Don't have an account? Register now (free) for customized features, flight alerts, and more!